createdAt,value
2022-09-03T00:01:43.444Z,70.43
2022-09-03T00:04:22.362Z,70.37
2022-09-03T00:07:06.448Z,70.44
2022-09-03T00:09:42.428Z,70.38
2022-09-03T00:12:14.428Z,70.21
2022-09-03T00:14:53.230Z,70.35
2022-09-03T00:17:42.187Z,70.49
2022-09-03T00:20:18.030Z,70.67
2022-09-03T00:22:48.843Z,70.55
2022-09-03T00:25:22.943Z,70.91
2022-09-03T00:27:56.238Z,70.59
2022-09-03T00:30:24.469Z,70.98
2022-09-03T00:32:59.452Z,70.73
2022-09-03T00:35:36.158Z,70.99
2022-09-03T00:38:02.344Z,71.43
2022-09-03T00:40:38.728Z,71.39
2022-09-03T00:43:46.408Z,71.92
2022-09-03T00:46:31.526Z,71.61
2022-09-03T00:49:09.856Z,72.07
2022-09-03T00:51:43.144Z,72.04
2022-09-03T00:54:19.691Z,72.37
2022-09-03T00:57:11.676Z,72.45
2022-09-03T00:59:59.109Z,73.05
2022-09-03T01:02:35.482Z,73.00
2022-09-03T01:05:15.130Z,72.77
2022-09-03T01:07:50.899Z,73.42
2022-09-03T01:10:44.764Z,73.15
2022-09-03T01:13:22.730Z,73.18
2022-09-03T01:16:22.289Z,73.54
2022-09-03T01:19:25.798Z,73.12
2022-09-03T01:22:07.329Z,73.51
2022-09-03T01:24:59.299Z,73.17
2022-09-03T01:27:52.443Z,73.39
2022-09-03T01:30:20.948Z,73.57
2022-09-03T01:33:05.455Z,73.14
2022-09-03T01:35:47.984Z,73.07
2022-09-03T01:38:47.896Z,73.09
2022-09-03T01:42:00.418Z,73.32
2022-09-03T01:45:08.382Z,73.43
2022-09-03T01:47:50.469Z,73.13
2022-09-03T01:50:34.229Z,73.27
2022-09-03T01:53:19.358Z,73.42
2022-09-03T01:56:11.564Z,73.31
2022-09-03T01:58:44.336Z,73.42
2022-09-03T02:01:19.272Z,73.18
2022-09-03T02:03:45.855Z,73.34
2022-09-03T02:06:12.691Z,73.30
2022-09-03T02:08:39.913Z,73.42
2022-09-03T02:11:09.610Z,73.23
2022-09-03T02:13:41.784Z,73.12
2022-09-03T02:16:14.784Z,73.25
2022-09-03T02:18:46.242Z,73.00
2022-09-03T02:21:17.110Z,73.40
2022-09-03T02:23:43.764Z,73.32
2022-09-03T02:26:12.808Z,73.46
2022-09-03T02:28:39.066Z,73.77
2022-09-03T02:31:05.573Z,73.85
2022-09-03T02:33:37.641Z,74.07
2022-09-03T02:36:07.142Z,74.14
2022-09-03T02:38:33.315Z,73.94
2022-09-03T02:40:59.472Z,74.01
2022-09-03T02:43:29.719Z,74.09
2022-09-03T02:46:01.227Z,74.04
2022-09-03T02:48:28.368Z,74.19
2022-09-03T02:50:55.082Z,74.42
2022-09-03T02:53:21.652Z,74.71
2022-09-03T02:55:47.807Z,74.51
2022-09-03T02:58:14.173Z,74.88
2022-09-03T03:00:40.321Z,74.67
2022-09-03T03:03:06.961Z,74.88
2022-09-03T03:05:43.954Z,74.50
2022-09-03T03:08:12.359Z,74.32
2022-09-03T03:10:38.756Z,74.41
2022-09-03T03:13:04.914Z,73.82
2022-09-03T03:15:31.067Z,73.90
2022-09-03T03:17:57.624Z,73.84
2022-09-03T03:20:24.178Z,73.71
2022-09-03T03:22:50.922Z,73.40
2022-09-03T03:25:17.149Z,73.78
2022-09-03T03:27:43.456Z,73.49
2022-09-03T03:30:11.115Z,73.70
2022-09-03T03:32:37.935Z,73.70
2022-09-03T03:35:05.601Z,73.47
2022-09-03T03:37:32.493Z,73.72
2022-09-03T03:39:58.792Z,74.05
2022-09-03T03:42:25.187Z,73.79
2022-09-03T03:44:51.349Z,73.97
2022-09-03T03:47:18.330Z,74.03
2022-09-03T03:49:45.364Z,74.58
2022-09-03T03:52:11.518Z,74.57
2022-09-03T03:54:37.694Z,74.88
2022-09-03T03:57:04.520Z,74.85
2022-09-03T03:59:30.679Z,75.33
2022-09-03T04:01:56.915Z,75.36
2022-09-03T04:04:23.102Z,75.73
2022-09-03T04:06:49.243Z,75.48
2022-09-03T04:09:15.399Z,75.96
2022-09-03T04:11:41.556Z,76.14
2022-09-03T04:14:07.715Z,76.28
2022-09-03T04:16:33.905Z,77.12
2022-09-03T04:19:00.301Z,77.12
2022-09-03T04:21:29.168Z,77.56
2022-09-03T04:23:56.152Z,77.53
2022-09-03T04:26:31.611Z,77.64
2022-09-03T04:29:00.005Z,77.65
2022-09-03T04:31:26.177Z,78.18
2022-09-03T04:33:52.396Z,78.11
2022-09-03T04:36:20.789Z,78.33
2022-09-03T04:38:48.553Z,78.48
2022-09-03T04:41:20.372Z,78.53
2022-09-03T04:43:48.294Z,78.74
2022-09-03T04:46:18.384Z,78.53
2022-09-03T04:48:48.409Z,78.99
2022-09-03T04:51:16.889Z,78.67
2022-09-03T04:53:46.131Z,79.29
2022-09-03T04:56:18.524Z,79.05
2022-09-03T04:58:45.212Z,79.14
2022-09-03T05:01:17.587Z,79.00
2022-09-03T05:03:44.267Z,78.78
2022-09-03T05:06:10.928Z,79.03
2022-09-03T05:08:37.347Z,79.05
2022-09-03T05:11:06.368Z,78.79
2022-09-03T05:13:33.868Z,79.32
2022-09-03T05:16:06.553Z,79.62
2022-09-03T05:18:33.149Z,79.50
2022-09-03T05:21:05.091Z,79.64
2022-09-03T05:23:36.953Z,79.70
2022-09-03T05:26:10.813Z,79.44
2022-09-03T05:28:39.095Z,79.20
2022-09-03T05:31:06.473Z,79.25
2022-09-03T05:33:41.641Z,79.39
2022-09-03T05:36:10.229Z,79.23
2022-09-03T05:38:37.108Z,78.87
2022-09-03T05:41:05.971Z,78.95
2022-09-03T05:43:33.265Z,78.99
2022-09-03T05:46:00.836Z,79.11
2022-09-03T05:48:28.724Z,78.96
2022-09-03T05:51:02.551Z,78.81
2022-09-03T05:53:29.732Z,78.95
2022-09-03T05:56:00.605Z,78.90
2022-09-03T05:58:34.925Z,78.83
2022-09-03T06:01:09.958Z,79.13
2022-09-03T06:03:37.391Z,79.11
2022-09-03T06:06:05.492Z,79.27
2022-09-03T06:08:31.676Z,78.99
2022-09-03T06:10:59.417Z,78.15
2022-09-03T06:13:25.578Z,78.26
2022-09-03T06:15:57.335Z,77.17
2022-09-03T06:18:25.091Z,76.24
2022-09-03T06:21:05.318Z,75.52
2022-09-03T06:23:32.663Z,75.16
2022-09-03T06:26:12.708Z,74.29
2022-09-03T06:28:41.301Z,73.74
2022-09-03T06:31:10.124Z,73.27
2022-09-03T06:33:37.651Z,72.69
2022-09-03T06:36:08.788Z,72.98
2022-09-03T06:38:36.601Z,71.91
2022-09-03T06:41:06.396Z,71.33
2022-09-03T06:43:35.856Z,70.77
2022-09-03T06:46:05.337Z,69.86
2022-09-03T06:48:34.056Z,68.25
2022-09-03T06:51:03.339Z,68.45
2022-09-03T06:53:32.297Z,68.81
2022-09-03T06:56:07.709Z,68.31
2022-09-03T06:58:37.920Z,68.44
2022-09-03T07:01:13.225Z,68.65
2022-09-03T07:03:41.008Z,68.02
2022-09-03T07:06:10.108Z,67.49
2022-09-03T07:08:36.688Z,67.12
2022-09-03T07:11:06.203Z,67.24
2022-09-03T07:13:33.679Z,66.64
2022-09-03T07:16:11.176Z,66.56
2022-09-03T07:18:37.752Z,66.45
2022-09-03T07:21:07.502Z,65.65
2022-09-03T07:23:34.829Z,65.19
2022-09-03T07:26:03.969Z,64.82
2022-09-03T07:28:32.557Z,64.20
2022-09-03T07:31:06.151Z,64.10
2022-09-03T07:33:33.980Z,63.28
2022-09-03T07:36:12.436Z,62.90
2022-09-03T07:38:38.654Z,63.22
2022-09-03T07:41:06.994Z,62.50
2022-09-03T07:43:43.587Z,62.65
2022-09-03T07:46:13.218Z,60.94
2022-09-03T07:48:43.421Z,58.94
2022-09-03T07:51:10.076Z,58.05
2022-09-03T07:53:36.849Z,57.38
2022-09-03T07:56:04.937Z,56.24
2022-09-03T07:58:32.084Z,55.82
2022-09-03T08:00:58.868Z,55.82
2022-09-03T08:03:25.410Z,55.80
2022-09-03T08:05:51.590Z,55.36
2022-09-03T08:08:18.088Z,54.78
2022-09-03T08:10:45.959Z,55.61
2022-09-03T08:13:12.196Z,56.06
2022-09-03T08:15:40.503Z,55.50
2022-09-03T08:18:06.667Z,56.15
2022-09-03T08:20:32.951Z,56.22
2022-09-03T08:23:03.029Z,56.05
2022-09-03T08:25:29.598Z,55.50
2022-09-03T08:27:59.005Z,55.39
2022-09-03T08:30:25.443Z,54.89
2022-09-03T08:32:52.077Z,53.05
2022-09-03T08:35:18.259Z,53.55
2022-09-03T08:37:44.419Z,53.78
2022-09-03T08:40:10.717Z,53.74
2022-09-03T08:42:54.140Z,53.97
2022-09-03T08:45:21.562Z,54.23
2022-09-03T08:48:13.688Z,53.76
2022-09-03T08:50:45.335Z,54.14
2022-09-03T08:53:36.140Z,53.50
2022-09-03T08:56:13.080Z,52.97
2022-09-03T08:58:39.469Z,52.53
2022-09-03T09:01:34.783Z,51.99
2022-09-03T09:04:24.499Z,51.44
2022-09-03T09:07:05.899Z,50.83
2022-09-03T09:09:50.145Z,50.50
2022-09-03T09:12:48.229Z,51.10
2022-09-03T09:15:43.230Z,51.27
2022-09-03T09:18:12.747Z,51.22
2022-09-03T09:20:48.861Z,49.68
2022-09-03T09:23:27.260Z,49.55
2022-09-03T09:25:57.813Z,49.04
2022-09-03T09:28:30.084Z,48.30
2022-09-03T09:30:57.539Z,47.73
2022-09-03T09:33:25.382Z,47.45
2022-09-03T09:35:51.548Z,48.00
2022-09-03T09:38:29.962Z,47.87
2022-09-03T09:40:57.669Z,47.79
2022-09-03T09:43:24.690Z,47.59
2022-09-03T09:45:53.623Z,46.49
2022-09-03T09:48:46.575Z,47.08
2022-09-03T09:51:18.920Z,46.46
2022-09-03T09:53:46.143Z,45.09
2022-09-03T09:56:24.652Z,44.49
2022-09-03T09:58:53.594Z,43.56
2022-09-03T10:01:23.552Z,42.62
2022-09-03T10:03:55.416Z,41.63
2022-09-03T10:11:18.645Z,42.62
2022-09-03T10:13:48.638Z,41.22
2022-09-03T10:16:24.011Z,41.61
2022-09-03T10:19:09.420Z,42.48
2022-09-03T10:21:45.712Z,41.96
2022-09-03T10:24:15.754Z,41.82
2022-09-03T10:26:45.088Z,42.20
2022-09-03T10:29:16.200Z,40.48
2022-09-03T10:32:02.823Z,40.62
2022-09-03T10:34:38.852Z,39.77
2022-09-03T10:37:39.656Z,39.38
2022-09-03T10:40:08.650Z,40.60
2022-09-03T10:42:45.911Z,40.44
2022-09-03T10:45:37.608Z,38.98
2022-09-03T10:48:41.781Z,37.30
2022-09-03T10:51:26.635Z,37.13
2022-09-03T10:54:03.460Z,37.93
2022-09-03T10:56:40.843Z,38.69
2022-09-03T10:59:29.278Z,38.12
2022-09-03T11:02:04.752Z,37.56
2022-09-03T11:05:00.960Z,36.87
2022-09-03T11:07:36.084Z,36.60
2022-09-03T11:10:11.727Z,35.78
2022-09-03T11:12:49.303Z,35.62
2022-09-03T11:15:31.225Z,35.91
2022-09-03T11:18:35.123Z,35.33
2022-09-03T11:21:08.823Z,35.30
2022-09-03T11:23:40.695Z,34.96
2022-09-03T11:26:12.940Z,34.15
2022-09-03T11:28:59.082Z,33.63
2022-09-03T11:32:02.486Z,33.55
2022-09-03T11:34:32.426Z,34.33
2022-09-03T11:37:08.026Z,33.60
2022-09-03T11:39:39.984Z,33.49
2022-09-03T11:42:12.547Z,33.38
2022-09-03T11:44:51.153Z,32.54
2022-09-03T11:47:40.188Z,33.66
2022-09-03T11:50:27.991Z,32.46
2022-09-03T11:53:21.463Z,33.00
2022-09-03T11:56:13.113Z,33.95
2022-09-03T11:58:43.020Z,34.07
2022-09-03T12:01:16.216Z,34.46
2022-09-03T12:03:54.051Z,34.51
2022-09-03T12:06:39.176Z,32.00
2022-09-03T12:09:29.808Z,31.43
2022-09-03T12:11:58.769Z,31.26
2022-09-03T12:14:32.853Z,30.32
2022-09-03T12:17:27.590Z,30.88
2022-09-03T12:19:56.392Z,29.97
2022-09-03T12:22:25.845Z,29.85
2022-09-03T12:24:52.332Z,29.90
2022-09-03T12:27:24.793Z,29.70
2022-09-03T12:30:04.091Z,28.37
2022-09-03T12:32:38.376Z,29.14
2022-09-03T12:35:13.669Z,28.25
2022-09-03T12:40:30.645Z,29.08
2022-09-03T12:46:13.968Z,28.68
2022-09-03T12:49:30.079Z,29.06
2022-09-03T12:51:51.055Z,28.42
2022-09-03T12:54:20.605Z,29.01
2022-09-03T12:56:56.179Z,28.48
2022-09-03T12:59:24.385Z,28.07
2022-09-03T13:01:56.647Z,27.97
2022-09-03T13:04:33.892Z,28.51
2022-09-03T13:07:13.048Z,28.23
2022-09-03T13:09:40.720Z,28.69
2022-09-03T13:12:07.523Z,29.53
2022-09-03T13:14:52.796Z,29.34
2022-09-03T13:18:29.983Z,29.74
2022-09-03T13:21:22.253Z,29.00
2022-09-03T13:24:03.067Z,28.77
2022-09-03T13:26:55.425Z,28.91
2022-09-03T13:29:33.649Z,29.47
2022-09-03T13:32:26.036Z,30.12
2022-09-03T13:35:00.970Z,30.41
2022-09-03T13:37:33.211Z,30.60
2022-09-03T13:40:10.201Z,30.38
2022-09-03T13:42:41.882Z,30.90
2022-09-03T13:46:00.585Z,30.59
2022-09-03T13:48:59.011Z,29.78
2022-09-03T13:51:49.444Z,28.68
2022-09-03T13:54:48.680Z,29.07
2022-09-03T13:57:32.881Z,29.36
2022-09-03T14:00:11.679Z,28.33
2022-09-03T14:02:51.610Z,28.90
2022-09-03T14:05:42.855Z,29.31
2022-09-03T14:08:28.482Z,28.57
2022-09-03T14:11:23.810Z,28.71
2022-09-03T14:14:24.054Z,28.46
2022-09-03T14:17:08.869Z,28.50
2022-09-03T14:20:09.816Z,27.98
2022-09-03T14:22:44.928Z,28.60
2022-09-03T14:25:23.274Z,28.46
2022-09-03T14:27:49.918Z,28.57
2022-09-03T14:30:16.018Z,28.87
2022-09-03T14:33:06.811Z,29.18
2022-09-03T14:35:36.094Z,28.96
2022-09-03T14:38:14.183Z,29.37
2022-09-03T14:40:57.329Z,29.72
2022-09-03T14:43:57.364Z,29.77
2022-09-03T14:46:42.562Z,30.17
2022-09-03T14:49:21.016Z,29.47
2022-09-03T14:52:06.248Z,29.74
2022-09-03T14:54:53.028Z,29.42
2022-09-03T14:57:31.056Z,29.38
2022-09-03T15:00:34.202Z,29.85
2022-09-03T15:03:19.925Z,29.89
2022-09-03T15:06:03.709Z,30.32
2022-09-03T15:09:15.365Z,29.03
2022-09-03T15:11:49.287Z,28.83
2022-09-03T15:14:24.622Z,28.43
2022-09-03T15:16:56.334Z,28.39
2022-09-03T15:20:07.309Z,26.84
2022-09-03T15:22:49.891Z,27.40
2022-09-03T15:25:21.666Z,25.86
2022-09-03T15:28:12.604Z,26.65
2022-09-03T15:30:49.396Z,25.23
2022-09-03T15:33:40.058Z,25.59
2022-09-03T15:36:13.619Z,26.82
2022-09-03T15:38:58.292Z,27.02
2022-09-03T15:41:46.119Z,27.31
2022-09-03T15:44:19.252Z,27.85
2022-09-03T15:47:04.108Z,27.96
2022-09-03T15:49:54.359Z,28.39
2022-09-03T15:52:42.146Z,28.32
2022-09-03T15:55:15.254Z,28.78
2022-09-03T15:58:09.468Z,28.97
2022-09-03T16:01:03.192Z,29.72
2022-09-03T16:03:44.350Z,29.36
2022-09-03T16:06:39.480Z,29.06
2022-09-03T16:09:20.534Z,28.97
2022-09-03T16:12:07.926Z,29.36
2022-09-03T16:14:51.663Z,28.85
2022-09-03T16:17:34.056Z,29.61
2022-09-03T16:20:19.036Z,30.25
2022-09-03T16:22:55.011Z,30.78
2022-09-03T16:25:29.299Z,31.04
2022-09-03T16:28:10.283Z,32.07
2022-09-03T16:31:10.087Z,31.90
2022-09-03T16:34:30.308Z,31.48
2022-09-03T16:37:07.847Z,32.01
2022-09-03T16:39:54.450Z,32.90
2022-09-03T16:42:42.470Z,32.26
2022-09-03T16:45:43.424Z,32.41
2022-09-03T16:48:33.301Z,32.47
2022-09-03T16:51:46.752Z,32.93
2022-09-03T16:54:59.514Z,33.01
2022-09-03T16:57:45.991Z,33.79
2022-09-03T17:00:20.369Z,34.24
2022-09-03T17:03:01.637Z,34.97
2022-09-03T17:05:56.834Z,35.00
2022-09-03T17:08:44.232Z,35.45
2022-09-03T17:11:34.737Z,35.54
2022-09-03T17:14:23.267Z,35.90
2022-09-03T17:17:15.236Z,36.04
2022-09-03T17:19:53.422Z,36.26
2022-09-03T17:22:39.926Z,36.51
2022-09-03T17:25:35.617Z,37.10
2022-09-03T17:28:43.081Z,37.19
2022-09-03T17:31:22.188Z,37.90
2022-09-03T17:34:25.219Z,37.83
2022-09-03T17:37:23.866Z,38.31
2022-09-03T17:40:03.551Z,38.96
2022-09-03T17:43:28.434Z,39.52
2022-09-03T17:46:07.947Z,39.86
2022-09-03T17:48:51.389Z,39.88
2022-09-03T17:51:40.367Z,40.28
2022-09-03T17:54:24.656Z,41.38
2022-09-03T17:56:59.947Z,41.67
2022-09-03T17:59:46.316Z,42.15
2022-09-03T18:02:27.551Z,42.51
2022-09-03T18:05:00.760Z,42.61
2022-09-03T18:07:38.116Z,42.71
2022-09-03T18:10:23.415Z,43.01
2022-09-03T18:13:03.732Z,43.65
2022-09-03T18:15:46.637Z,43.90
2022-09-03T18:18:26.096Z,44.05
2022-09-03T18:21:24.397Z,44.38
2022-09-03T18:24:30.111Z,44.42
2022-09-03T18:27:23.854Z,44.58
2022-09-03T18:30:21.498Z,44.87
2022-09-03T18:33:07.160Z,44.58
2022-09-03T18:35:52.236Z,44.97
2022-09-03T18:38:43.635Z,44.33
2022-09-03T18:41:49.972Z,44.62
2022-09-03T18:44:48.419Z,44.19
2022-09-03T18:48:19.741Z,44.28
2022-09-03T18:51:33.888Z,44.48
2022-09-03T18:54:50.654Z,44.34
2022-09-03T18:57:55.138Z,44.48
2022-09-03T19:00:40.775Z,45.00
2022-09-03T19:03:55.397Z,45.00
2022-09-03T19:06:57.044Z,45.05
2022-09-03T19:10:07.170Z,45.32
2022-09-03T19:13:12.888Z,45.49
2022-09-03T19:16:20.534Z,44.94
2022-09-03T19:19:30.510Z,45.22
2022-09-03T19:22:20.826Z,45.15
2022-09-03T19:25:14.800Z,45.10
2022-09-03T19:28:17.243Z,45.80
2022-09-03T19:31:24.439Z,45.05
2022-09-03T19:34:39.952Z,45.27
2022-09-03T19:37:36.021Z,45.37
2022-09-03T19:40:46.761Z,45.51
2022-09-03T19:43:53.422Z,45.54
2022-09-03T19:47:05.502Z,45.63
2022-09-03T19:50:10.168Z,45.45
2022-09-03T19:53:04.093Z,46.09
2022-09-03T19:55:53.870Z,45.74
2022-09-03T19:58:44.142Z,45.99
2022-09-03T20:01:30.275Z,46.07
2022-09-03T20:04:18.998Z,46.28
2022-09-03T20:07:04.343Z,46.53
2022-09-03T20:09:54.826Z,46.74
2022-09-03T20:12:24.056Z,46.70
